sensor_id;sensor_type;location;lat;lon;timestamp;pressure;altitude;pressure_sealevel;temperature;humidity
13968;BME280;39536;52.198;9.920;2022-12-18T00:00:11;102139.94;;;-4.47;100.00
13968;BME280;39536;52.198;9.920;2022-12-18T00:02:38;102135.66;;;-4.48;100.00
13968;BME280;39536;52.198;9.920;2022-12-18T00:05:05;102134.75;;;-4.49;100.00
13968;BME280;39536;52.198;9.920;2022-12-18T00:07:32;102133.09;;;-4.48;100.00
13968;BME280;39536;52.198;9.920;2022-12-18T00:09:58;102132.53;;;-4.43;100.00
13968;BME280;39536;52.198;9.920;2022-12-18T00:12:27;102133.16;;;-4.47;100.00
13968;BME280;39536;52.198;9.920;2022-12-18T00:14:53;102131.84;;;-4.40;100.00
13968;BME280;39536;52.198;9.920;2022-12-18T00:17:20;102130.31;;;-4.36;100.00
13968;BME280;39536;52.198;9.920;2022-12-18T00:19:46;102137.34;;;-4.32;100.00
13968;BME280;39536;52.198;9.920;2022-12-18T00:22:13;102144.34;;;-4.28;100.00
13968;BME280;39536;52.198;9.920;2022-12-18T00:24:39;102140.13;;;-4.28;100.00
13968;BME280;39536;52.198;9.920;2022-12-18T00:27:06;102139.75;;;-4.19;100.00
13968;BME280;39536;52.198;9.920;2022-12-18T00:29:34;102146.66;;;-4.16;100.00
13968;BME280;39536;52.198;9.920;2022-12-18T00:32:00;102155.88;;;-4.19;100.00
13968;BME280;39536;52.198;9.920;2022-12-18T00:34:27;102161.13;;;-4.15;100.00
13968;BME280;39536;52.198;9.920;2022-12-18T00:36:53;102154.63;;;-4.10;100.00
13968;BME280;39536;52.198;9.920;2022-12-18T00:39:20;102152.25;;;-4.07;100.00
13968;BME280;39536;52.198;9.920;2022-12-18T00:41:46;102150.91;;;-4.01;100.00
13968;BME280;39536;52.198;9.920;2022-12-18T00:44:30;102145.47;;;-4.07;100.00
13968;BME280;39536;52.198;9.920;2022-12-18T00:46:58;102154.16;;;-4.03;100.00
13968;BME280;39536;52.198;9.920;2022-12-18T00:49:25;102160.44;;;-3.97;100.00
13968;BME280;39536;52.198;9.920;2022-12-18T00:51:51;102160.53;;;-3.95;100.00
13968;BME280;39536;52.198;9.920;2022-12-18T00:54:18;102170.13;;;-3.89;100.00
13968;BME280;39536;52.198;9.920;2022-12-18T00:56:45;102170.94;;;-3.90;100.00
13968;BME280;39536;52.198;9.920;2022-12-18T00:59:11;102173.56;;;-3.89;100.00
13968;BME280;39536;52.198;9.920;2022-12-18T01:01:38;102171.09;;;-3.87;100.00
13968;BME280;39536;52.198;9.920;2022-12-18T01:04:06;102158.22;;;-3.90;100.00
13968;BME280;39536;52.198;9.920;2022-12-18T01:06:32;102157.28;;;-3.92;100.00
13968;BME280;39536;52.198;9.920;2022-12-18T01:08:59;102156.53;;;-3.90;100.00
13968;BME280;39536;52.198;9.920;2022-12-18T01:11:25;102165.13;;;-3.88;100.00
13968;BME280;39536;52.198;9.920;2022-12-18T01:13:53;102164.91;;;-3.92;100.00
13968;BME280;39536;52.198;9.920;2022-12-18T01:16:20;102167.34;;;-3.94;100.00
13968;BME280;39536;52.198;9.920;2022-12-18T01:18:47;102171.56;;;-3.95;100.00
13968;BME280;39536;52.198;9.920;2022-12-18T01:21:16;102173.38;;;-4.08;100.00
13968;BME280;39536;52.198;9.920;2022-12-18T01:23:42;102178.56;;;-4.07;100.00
13968;BME280;39536;52.198;9.920;2022-12-18T01:26:11;102181.75;;;-4.11;100.00
13968;BME280;39536;52.198;9.920;2022-12-18T01:28:39;102178.13;;;-4.14;100.00
13968;BME280;39536;52.198;9.920;2022-12-18T01:31:14;102176.50;;;-4.14;100.00
13968;BME280;39536;52.198;9.920;2022-12-18T01:33:41;102176.41;;;-4.15;100.00
13968;BME280;39536;52.198;9.920;2022-12-18T01:36:11;102187.44;;;-4.15;100.00
13968;BME280;39536;52.198;9.920;2022-12-18T01:38:41;102187.28;;;-4.18;100.00
13968;BME280;39536;52.198;9.920;2022-12-18T01:41:08;102185.38;;;-4.22;100.00
13968;BME280;39536;52.198;9.920;2022-12-18T01:43:47;102180.59;;;-4.32;100.00
13968;BME280;39536;52.198;9.920;2022-12-18T01:46:15;102184.53;;;-4.37;100.00
13968;BME280;39536;52.198;9.920;2022-12-18T01:48:43;102186.38;;;-4.35;100.00
13968;BME280;39536;52.198;9.920;2022-12-18T01:51:11;102187.19;;;-4.36;100.00
13968;BME280;39536;52.198;9.920;2022-12-18T01:53:40;102193.91;;;-4.36;100.00
13968;BME280;39536;52.198;9.920;2022-12-18T01:56:12;102185.22;;;-4.40;100.00
13968;BME280;39536;52.198;9.920;2022-12-18T01:58:45;102192.69;;;-4.43;100.00
13968;BME280;39536;52.198;9.920;2022-12-18T02:01:13;102186.16;;;-4.54;100.00
13968;BME280;39536;52.198;9.920;2022-12-18T02:03:41;102183.00;;;-4.50;100.00
13968;BME280;39536;52.198;9.920;2022-12-18T02:06:13;102190.69;;;-4.49;100.00
13968;BME280;39536;52.198;9.920;2022-12-18T02:08:48;102196.09;;;-4.43;100.00
13968;BME280;39536;52.198;9.920;2022-12-18T02:11:24;102196.22;;;-4.41;100.00
13968;BME280;39536;52.198;9.920;2022-12-18T02:14:03;102186.75;;;-4.44;100.00
13968;BME280;39536;52.198;9.920;2022-12-18T02:16:39;102190.25;;;-4.42;100.00
13968;BME280;39536;52.198;9.920;2022-12-18T02:19:25;102188.97;;;-4.33;100.00
13968;BME280;39536;52.198;9.920;2022-12-18T02:22:00;102184.97;;;-4.30;100.00
13968;BME280;39536;52.198;9.920;2022-12-18T02:24:35;102184.00;;;-4.32;100.00
13968;BME280;39536;52.198;9.920;2022-12-18T02:27:09;102191.63;;;-4.32;100.00
13968;BME280;39536;52.198;9.920;2022-12-18T02:29:39;102191.53;;;-4.33;100.00
13968;BME280;39536;52.198;9.920;2022-12-18T02:32:10;102180.97;;;-4.25;100.00
13968;BME280;39536;52.198;9.920;2022-12-18T02:34:40;102181.41;;;-4.17;100.00
13968;BME280;39536;52.198;9.920;2022-12-18T02:37:10;102185.53;;;-4.19;100.00
13968;BME280;39536;52.198;9.920;2022-12-18T02:39:40;102181.31;;;-4.19;100.00
13968;BME280;39536;52.198;9.920;2022-12-18T02:42:10;102183.56;;;-4.08;100.00
13968;BME280;39536;52.198;9.920;2022-12-18T02:44:42;102180.63;;;-4.00;100.00
13968;BME280;39536;52.198;9.920;2022-12-18T02:47:10;102175.63;;;-3.98;100.00
13968;BME280;39536;52.198;9.920;2022-12-18T02:49:44;102173.16;;;-3.97;100.00
13968;BME280;39536;52.198;9.920;2022-12-18T02:52:23;102169.03;;;-3.95;100.00
13968;BME280;39536;52.198;9.920;2022-12-18T02:54:57;102169.09;;;-3.93;100.00
13968;BME280;39536;52.198;9.920;2022-12-18T02:57:34;102176.66;;;-3.95;100.00
13968;BME280;39536;52.198;9.920;2022-12-18T03:00:05;102173.88;;;-3.99;100.00
13968;BME280;39536;52.198;9.920;2022-12-18T03:02:36;102167.34;;;-3.94;100.00
13968;BME280;39536;52.198;9.920;2022-12-18T03:05:08;102163.84;;;-3.96;100.00
13968;BME280;39536;52.198;9.920;2022-12-18T03:07:41;102161.31;;;-3.96;100.00
13968;BME280;39536;52.198;9.920;2022-12-18T03:10:12;102164.91;;;-3.92;100.00
13968;BME280;39536;52.198;9.920;2022-12-18T03:12:43;102163.84;;;-3.96;100.00
13968;BME280;39536;52.198;9.920;2022-12-18T03:15:14;102169.69;;;-3.99;100.00
13968;BME280;39536;52.198;9.920;2022-12-18T03:17:46;102167.34;;;-3.94;100.00
13968;BME280;39536;52.198;9.920;2022-12-18T03:20:17;102165.84;;;-3.90;100.00
13968;BME280;39536;52.198;9.920;2022-12-18T03:22:47;102164.00;;;-3.93;100.00
13968;BME280;39536;52.198;9.920;2022-12-18T03:25:17;102165.03;;;-3.89;100.00
13968;BME280;39536;52.198;9.920;2022-12-18T03:27:48;102167.34;;;-3.94;100.00
13968;BME280;39536;52.198;9.920;2022-12-18T03:30:17;102165.03;;;-4.06;100.00
13968;BME280;39536;52.198;9.920;2022-12-18T03:32:47;102163.88;;;-4.27;100.00
13968;BME280;39536;52.198;9.920;2022-12-18T03:35:21;102167.38;;;-4.42;100.00
13968;BME280;39536;52.198;9.920;2022-12-18T03:37:49;102158.59;;;-4.47;100.00
13968;BME280;39536;52.198;9.920;2022-12-18T03:40:16;102164.38;;;-4.49;100.00
13968;BME280;39536;52.198;9.920;2022-12-18T03:42:48;102165.56;;;-4.59;100.00
13968;BME280;39536;52.198;9.920;2022-12-18T03:45:22;102170.00;;;-4.55;100.00
13968;BME280;39536;52.198;9.920;2022-12-18T03:47:59;102167.47;;;-4.55;100.00
13968;BME280;39536;52.198;9.920;2022-12-18T03:50:34;102162.53;;;-4.52;100.00
13968;BME280;39536;52.198;9.920;2022-12-18T03:53:09;102158.38;;;-4.51;100.00
13968;BME280;39536;52.198;9.920;2022-12-18T03:55:42;102155.03;;;-4.50;100.00
13968;BME280;39536;52.198;9.920;2022-12-18T03:58:13;102162.13;;;-4.45;100.00
13968;BME280;39536;52.198;9.920;2022-12-18T04:00:42;102153.34;;;-4.50;100.00
13968;BME280;39536;52.198;9.920;2022-12-18T04:03:10;102150.91;;;-4.48;100.00
13968;BME280;39536;52.198;9.920;2022-12-18T04:05:38;102155.03;;;-4.50;100.00
13968;BME280;39536;52.198;9.920;2022-12-18T04:08:06;102159.31;;;-4.49;100.00
13968;BME280;39536;52.198;9.920;2022-12-18T04:10:33;102167.97;;;-4.46;100.00
13968;BME280;39536;52.198;9.920;2022-12-18T04:12:59;102170.28;;;-4.50;100.00
13968;BME280;39536;52.198;9.920;2022-12-18T04:15:27;102168.19;;;-4.57;100.00
13968;BME280;39536;52.198;9.920;2022-12-18T04:17:54;102173.19;;;-4.59;100.00
13968;BME280;39536;52.198;9.920;2022-12-18T04:20:20;102173.13;;;-4.60;100.00
13968;BME280;39536;52.198;9.920;2022-12-18T04:22:47;102172.41;;;-4.58;100.00
13968;BME280;39536;52.198;9.920;2022-12-18T04:25:14;102172.94;;;-4.63;100.00
13968;BME280;39536;52.198;9.920;2022-12-18T04:27:40;102167.94;;;-4.62;100.00
13968;BME280;39536;52.198;9.920;2022-12-18T04:30:07;102167.69;;;-4.67;100.00
13968;BME280;39536;52.198;9.920;2022-12-18T04:32:36;102167.00;;;-4.64;100.00
13968;BME280;39536;52.198;9.920;2022-12-18T04:35:03;102162.84;;;-4.62;100.00
13968;BME280;39536;52.198;9.920;2022-12-18T04:37:32;102176.41;;;-4.61;100.00
13968;BME280;39536;52.198;9.920;2022-12-18T04:39:58;102167.00;;;-4.64;100.00
13968;BME280;39536;52.198;9.920;2022-12-18T04:42:25;102170.25;;;-4.81;100.00
13968;BME280;39536;52.198;9.920;2022-12-18T04:44:51;102163.16;;;-4.87;100.00
13968;BME280;39536;52.198;9.920;2022-12-18T04:47:18;102164.56;;;-5.07;100.00
13968;BME280;39536;52.198;9.920;2022-12-18T04:49:46;102165.09;;;-5.13;100.00
13968;BME280;39536;52.198;9.920;2022-12-18T04:52:12;102159.66;;;-5.19;100.00
13968;BME280;39536;52.198;9.920;2022-12-18T04:54:39;102161.22;;;-5.21;100.00
13968;BME280;39536;52.198;9.920;2022-12-18T04:57:05;102156.94;;;-5.22;100.00
13968;BME280;39536;52.198;9.920;2022-12-18T04:59:32;102158.69;;;-5.21;100.00
13968;BME280;39536;52.198;9.920;2022-12-18T05:01:58;102163.25;;;-5.15;100.00
13968;BME280;39536;52.198;9.920;2022-12-18T05:04:25;102171.13;;;-5.11;100.00
13968;BME280;39536;52.198;9.920;2022-12-18T05:06:53;102168.06;;;-5.05;100.00
13968;BME280;39536;52.198;9.920;2022-12-18T05:09:20;102166.84;;;-4.97;100.00
13968;BME280;39536;52.198;9.920;2022-12-18T05:11:46;102162.03;;;-4.92;100.00
13968;BME280;39536;52.198;9.920;2022-12-18T05:14:13;102154.53;;;-4.89;100.00
13968;BME280;39536;52.198;9.920;2022-12-18T05:16:39;102167.97;;;-4.92;100.00
13968;BME280;39536;52.198;9.920;2022-12-18T05:19:06;102169.09;;;-4.87;100.00
13968;BME280;39536;52.198;9.920;2022-12-18T05:21:33;102178.50;;;-4.85;100.00
13968;BME280;39536;52.198;9.920;2022-12-18T05:24:00;102178.75;;;-4.81;100.00
13968;BME280;39536;52.198;9.920;2022-12-18T05:26:27;102177.56;;;-4.71;100.00
13968;BME280;39536;52.198;9.920;2022-12-18T05:28:57;102178.72;;;-4.66;100.00
13968;BME280;39536;52.198;9.920;2022-12-18T05:31:23;102182.25;;;-4.64;100.00
13968;BME280;39536;52.198;9.920;2022-12-18T05:33:50;102178.91;;;-4.63;100.00
13968;BME280;39536;52.198;9.920;2022-12-18T05:36:16;102187.56;;;-4.59;100.00
13968;BME280;39536;52.198;9.920;2022-12-18T05:38:43;102190.34;;;-4.55;100.00
13968;BME280;39536;52.198;9.920;2022-12-18T05:41:11;102191.06;;;-4.57;100.00
13968;BME280;39536;52.198;9.920;2022-12-18T05:43:39;102186.53;;;-4.63;100.00
13968;BME280;39536;52.198;9.920;2022-12-18T05:46:07;102186.69;;;-4.60;100.00
13968;BME280;39536;52.198;9.920;2022-12-18T05:48:34;102189.53;;;-4.70;100.00
13968;BME280;39536;52.198;9.920;2022-12-18T05:51:05;102193.19;;;-4.65;100.00
13968;BME280;39536;52.198;9.920;2022-12-18T05:53:32;102192.81;;;-4.56;100.00
13968;BME280;39536;52.198;9.920;2022-12-18T05:56:00;102189.22;;;-4.60;100.00
13968;BME280;39536;52.198;9.920;2022-12-18T05:58:28;102197.19;;;-4.54;100.00
13968;BME280;39536;52.198;9.920;2022-12-18T06:00:55;102197.03;;;-4.57;100.00
13968;BME280;39536;52.198;9.920;2022-12-18T06:03:21;102209.13;;;-4.53;100.00
13968;BME280;39536;52.198;9.920;2022-12-18T06:05:48;102218.06;;;-4.45;100.00
13968;BME280;39536;52.198;9.920;2022-12-18T06:08:14;102215.69;;;-4.42;100.00
13968;BME280;39536;52.198;9.920;2022-12-18T06:10:41;102220.78;;;-4.42;100.00
13968;BME280;39536;52.198;9.920;2022-12-18T06:13:08;102210.84;;;-4.37;100.00
13968;BME280;39536;52.198;9.920;2022-12-18T06:15:37;102208.47;;;-4.34;100.00
13968;BME280;39536;52.198;9.920;2022-12-18T06:18:04;102209.09;;;-4.38;100.00
13968;BME280;39536;52.198;9.920;2022-12-18T06:20:30;102213.38;;;-4.37;100.00
13968;BME280;39536;52.198;9.920;2022-12-18T06:22:57;102220.25;;;-4.36;100.00
13968;BME280;39536;52.198;9.920;2022-12-18T06:25:23;102213.72;;;-4.31;100.00
13968;BME280;39536;52.198;9.920;2022-12-18T06:27:50;102219.06;;;-4.26;100.00
13968;BME280;39536;52.198;9.920;2022-12-18T06:30:17;102217.31;;;-4.27;100.00
13968;BME280;39536;52.198;9.920;2022-12-18T06:32:44;102214.91;;;-4.24;100.00
13968;BME280;39536;52.198;9.920;2022-12-18T06:35:11;102210.47;;;-4.28;100.00
13968;BME280;39536;52.198;9.920;2022-12-18T06:37:37;102214.41;;;-4.33;100.00
13968;BME280;39536;52.198;9.920;2022-12-18T06:40:05;102208.41;;;-4.35;100.00
13968;BME280;39536;52.198;9.920;2022-12-18T06:42:32;102203.50;;;-4.47;100.00
13968;BME280;39536;52.198;9.920;2022-12-18T06:44:59;102206.34;;;-4.57;100.00
13968;BME280;39536;52.198;9.920;2022-12-18T06:47:25;102215.13;;;-4.67;100.00
13968;BME280;39536;52.198;9.920;2022-12-18T06:49:53;102212.91;;;-4.76;100.00
13968;BME280;39536;52.198;9.920;2022-12-18T06:52:19;102214.31;;;-4.81;100.00
13968;BME280;39536;52.198;9.920;2022-12-18T06:54:46;102220.28;;;-4.80;100.00
13968;BME280;39536;52.198;9.920;2022-12-18T06:57:12;102223.44;;;-4.84;100.00
13968;BME280;39536;52.198;9.920;2022-12-18T06:59:39;102218.19;;;-4.88;100.00
13968;BME280;39536;52.198;9.920;2022-12-18T07:02:05;102222.09;;;-4.93;100.00
13968;BME280;39536;52.198;9.920;2022-12-18T07:04:32;102231.41;;;-4.93;100.00
13968;BME280;39536;52.198;9.920;2022-12-18T07:07:00;102230.34;;;-4.97;100.00
13968;BME280;39536;52.198;9.920;2022-12-18T07:09:26;102230.63;;;-4.92;100.00
13968;BME280;39536;52.198;9.920;2022-12-18T07:11:53;102231.84;;;-4.85;100.00
13968;BME280;39536;52.198;9.920;2022-12-18T07:14:20;102232.28;;;-4.78;100.00
13968;BME280;39536;52.198;9.920;2022-12-18T07:16:47;102237.66;;;-4.73;100.00
13968;BME280;39536;52.198;9.920;2022-12-18T07:19:13;102240.19;;;-4.73;100.00
13968;BME280;39536;52.198;9.920;2022-12-18T07:21:40;102249.72;;;-4.69;100.00
13968;BME280;39536;52.198;9.920;2022-12-18T07:24:08;102246.22;;;-4.71;100.00
13968;BME280;39536;52.198;9.920;2022-12-18T07:26:34;102255.34;;;-4.75;100.00
13968;BME280;39536;52.198;9.920;2022-12-18T07:29:01;102254.53;;;-4.74;100.00
13968;BME280;39536;52.198;9.920;2022-12-18T07:31:27;102258.56;;;-4.77;100.00
13968;BME280;39536;52.198;9.920;2022-12-18T07:33:54;102264.53;;;-4.77;100.00
13968;BME280;39536;52.198;9.920;2022-12-18T07:36:23;102257.88;;;-4.75;100.00
13968;BME280;39536;52.198;9.920;2022-12-18T07:38:50;102258.75;;;-4.74;100.00
13968;BME280;39536;52.198;9.920;2022-12-18T07:41:20;102261.38;;;-4.73;100.00
13968;BME280;39536;52.198;9.920;2022-12-18T07:43:46;102264.34;;;-4.65;100.00
13968;BME280;39536;52.198;9.920;2022-12-18T07:46:13;102273.81;;;-4.62;100.00
13968;BME280;39536;52.198;9.920;2022-12-18T07:48:40;102277.41;;;-4.59;100.00
13968;BME280;39536;52.198;9.920;2022-12-18T07:51:07;102274.34;;;-4.53;100.00
13968;BME280;39536;52.198;9.920;2022-12-18T07:53:35;102272.84;;;-4.50;100.00
13968;BME280;39536;52.198;9.920;2022-12-18T07:56:03;102266.19;;;-4.48;100.00
13968;BME280;39536;52.198;9.920;2022-12-18T07:58:32;102267.25;;;-4.44;100.00
13968;BME280;39536;52.198;9.920;2022-12-18T08:01:02;102262.06;;;-4.46;100.00
13968;BME280;39536;52.198;9.920;2022-12-18T08:03:29;102260.66;;;-4.41;100.00
13968;BME280;39536;52.198;9.920;2022-12-18T08:05:58;102246.38;;;-4.38;100.00
13968;BME280;39536;52.198;9.920;2022-12-18T08:08:25;102245.03;;;-4.32;100.00
13968;BME280;39536;52.198;9.920;2022-12-18T08:10:51;102243.00;;;-4.23;100.00
13968;BME280;39536;52.198;9.920;2022-12-18T08:13:18;102245.97;;;-4.15;100.00
13968;BME280;39536;52.198;9.920;2022-12-18T08:15:46;102240.09;;;-4.14;100.00
13968;BME280;39536;52.198;9.920;2022-12-18T08:18:12;102247.66;;;-3.99;100.00
13968;BME280;39536;52.198;9.920;2022-12-18T08:20:39;102237.09;;;-3.90;100.00
13968;BME280;39536;52.198;9.920;2022-12-18T08:23:05;102237.53;;;-3.83;100.00
13968;BME280;39536;52.198;9.920;2022-12-18T08:25:32;102227.59;;;-3.78;100.00
13968;BME280;39536;52.198;9.920;2022-12-18T08:28:00;102218.59;;;-3.72;100.00
13968;BME280;39536;52.198;9.920;2022-12-18T08:30:26;102213.22;;;-3.61;100.00
13968;BME280;39536;52.198;9.920;2022-12-18T08:32:54;102216.38;;;-3.49;100.00
13968;BME280;39536;52.198;9.920;2022-12-18T08:35:20;102216.22;;;-3.36;100.00
13968;BME280;39536;52.198;9.920;2022-12-18T08:37:47;102211.66;;;-3.25;100.00
13968;BME280;39536;52.198;9.920;2022-12-18T08:40:14;102213.09;;;-3.14;100.00
13968;BME280;39536;52.198;9.920;2022-12-18T08:42:40;102219.72;;;-2.99;100.00
13968;BME280;39536;52.198;9.920;2022-12-18T08:45:24;102213.41;;;-2.90;100.00
13968;BME280;39536;52.198;9.920;2022-12-18T08:47:51;102219.56;;;-2.86;100.00
13968;BME280;39536;52.198;9.920;2022-12-18T08:50:19;102209.66;;;-2.80;100.00
13968;BME280;39536;52.198;9.920;2022-12-18T08:52:46;102204.63;;;-2.79;100.00
13968;BME280;39536;52.198;9.920;2022-12-18T08:55:13;102199.09;;;-2.70;100.00
13968;BME280;39536;52.198;9.920;2022-12-18T08:57:39;102206.94;;;-2.65;100.00
13968;BME280;39536;52.198;9.920;2022-12-18T09:00:07;102217.53;;;-2.58;100.00
13968;BME280;39536;52.198;9.920;2022-12-18T09:02:34;102207.53;;;-2.53;100.00
13968;BME280;39536;52.198;9.920;2022-12-18T09:05:01;102212.31;;;-2.43;100.00
13968;BME280;39536;52.198;9.920;2022-12-18T09:07:29;102217.88;;;-2.50;100.00
13968;BME280;39536;52.198;9.920;2022-12-18T09:09:55;102215.44;;;-2.48;100.00
13968;BME280;39536;52.198;9.920;2022-12-18T09:12:22;102219.19;;;-2.40;100.00
13968;BME280;39536;52.198;9.920;2022-12-18T09:14:48;102216.06;;;-2.35;100.00
13968;BME280;39536;52.198;9.920;2022-12-18T09:17:15;102203.75;;;-2.25;100.00
13968;BME280;39536;52.198;9.920;2022-12-18T09:19:41;102199.94;;;-2.16;100.00
13968;BME280;39536;52.198;9.920;2022-12-18T09:22:08;102206.41;;;-2.04;100.00
13968;BME280;39536;52.198;9.920;2022-12-18T09:24:36;102197.31;;;-1.99;100.00
13968;BME280;39536;52.198;9.920;2022-12-18T09:27:03;102199.59;;;-1.86;100.00
13968;BME280;39536;52.198;9.920;2022-12-18T09:29:29;102190.56;;;-1.78;100.00
13968;BME280;39536;52.198;9.920;2022-12-18T09:31:56;102180.03;;;-1.66;100.00
13968;BME280;39536;52.198;9.920;2022-12-18T09:34:23;102184.28;;;-1.67;100.00
13968;BME280;39536;52.198;9.920;2022-12-18T09:36:50;102192.53;;;-1.53;100.00
13968;BME280;39536;52.198;9.920;2022-12-18T09:39:17;102180.16;;;-1.44;100.00
13968;BME280;39536;52.198;9.920;2022-12-18T09:41:47;102193.00;;;-1.42;100.00
13968;BME280;39536;52.198;9.920;2022-12-18T09:44:22;102190.38;;;-1.44;100.00
13968;BME280;39536;52.198;9.920;2022-12-18T09:46:53;102192.44;;;-1.35;100.00
13968;BME280;39536;52.198;9.920;2022-12-18T09:49:24;102202.03;;;-1.31;100.00
13968;BME280;39536;52.198;9.920;2022-12-18T09:51:55;102199.50;;;-1.29;100.00
13968;BME280;39536;52.198;9.920;2022-12-18T09:54:26;102207.75;;;-1.16;100.00
13968;BME280;39536;52.198;9.920;2022-12-18T09:56:57;102202.84;;;-1.11;100.00
13968;BME280;39536;52.198;9.920;2022-12-18T09:59:27;102207.47;;;-1.02;100.00
13968;BME280;39536;52.198;9.920;2022-12-18T10:01:57;102214.84;;;-0.89;100.00
13968;BME280;39536;52.198;9.920;2022-12-18T10:04:24;102222.44;;;-0.70;100.00
13968;BME280;39536;52.198;9.920;2022-12-18T10:06:54;102220.47;;;-0.56;100.00
13968;BME280;39536;52.198;9.920;2022-12-18T10:09:29;102214.13;;;-0.43;100.00
13968;BME280;39536;52.198;9.920;2022-12-18T10:12:05;102206.03;;;-0.31;100.00
13968;BME280;39536;52.198;9.920;2022-12-18T10:14:36;102212.31;;;-0.25;100.00
13968;BME280;39536;52.198;9.920;2022-12-18T10:17:13;102209.28;;;-0.14;100.00
13968;BME280;39536;52.198;9.920;2022-12-18T10:19:45;102211.34;;;-0.04;100.00
13968;BME280;39536;52.198;9.920;2022-12-18T10:22:23;102211.09;;;0.12;100.00
13968;BME280;39536;52.198;9.920;2022-12-18T10:24:55;102201.91;;;0.17;100.00
13968;BME280;39536;52.198;9.920;2022-12-18T10:27:27;102202.66;;;0.15;100.00
13968;BME280;39536;52.198;9.920;2022-12-18T10:29:55;102206.69;;;0.08;100.00
13968;BME280;39536;52.198;9.920;2022-12-18T10:32:23;102194.13;;;0.14;100.00
13968;BME280;39536;52.198;9.920;2022-12-18T10:34:53;102198.53;;;0.18;100.00
13968;BME280;39536;52.198;9.920;2022-12-18T10:37:21;102190.31;;;0.27;100.00
13968;BME280;39536;52.198;9.920;2022-12-18T10:40:07;102183.94;;;0.40;100.00
13968;BME280;39536;52.198;9.920;2022-12-18T10:42:36;102187.66;;;0.48;100.00
13968;BME280;39536;52.198;9.920;2022-12-18T10:45:09;102193.84;;;0.55;100.00
13968;BME280;39536;52.198;9.920;2022-12-18T10:47:36;102194.25;;;0.65;100.00
13968;BME280;39536;52.198;9.920;2022-12-18T10:50:19;102201.53;;;0.79;100.00
13968;BME280;39536;52.198;9.920;2022-12-18T10:52:57;102193.53;;;0.95;100.00
13968;BME280;39536;52.198;9.920;2022-12-18T10:55:27;102198.88;;;1.01;100.00
13968;BME280;39536;52.198;9.920;2022-12-18T10:58:13;102189.22;;;1.20;100.00
13968;BME280;39536;52.198;9.920;2022-12-18T11:00:43;102189.59;;;1.32;100.00
13968;BME280;39536;52.198;9.920;2022-12-18T11:03:30;102180.25;;;1.34;100.00
13968;BME280;39536;52.198;9.920;2022-12-18T11:06:07;102176.09;;;1.37;100.00
13968;BME280;39536;52.198;9.920;2022-12-18T11:08:35;102169.06;;;1.32;100.00
13968;BME280;39536;52.198;9.920;2022-12-18T11:11:02;102174.25;;;1.33;100.00
13968;BME280;39536;52.198;9.920;2022-12-18T11:13:34;102164.22;;;1.41;100.00
13968;BME280;39536;52.198;9.920;2022-12-18T11:16:01;102159.28;;;1.47;100.00
13968;BME280;39536;52.198;9.920;2022-12-18T11:18:29;102151.69;;;1.50;100.00
13968;BME280;39536;52.198;9.920;2022-12-18T11:20:59;102148.94;;;1.46;100.00
13968;BME280;39536;52.198;9.920;2022-12-18T11:23:27;102160.63;;;1.36;100.00
13968;BME280;39536;52.198;9.920;2022-12-18T11:25:56;102163.09;;;1.33;100.00
13968;BME280;39536;52.198;9.920;2022-12-18T11:28:29;102162.34;;;1.35;100.00
13968;BME280;39536;52.198;9.920;2022-12-18T11:31:19;102157.31;;;1.40;100.00
13968;BME280;39536;52.198;9.920;2022-12-18T11:33:52;102171.09;;;1.42;100.00
13968;BME280;39536;52.198;9.920;2022-12-18T11:36:21;102167.50;;;1.37;100.00
13968;BME280;39536;52.198;9.920;2022-12-18T11:38:50;102167.25;;;1.28;100.00
13968;BME280;39536;52.198;9.920;2022-12-18T11:41:22;102161.28;;;1.29;100.00
13968;BME280;39536;52.198;9.920;2022-12-18T11:44:11;102159.38;;;1.23;100.00
13968;BME280;39536;52.198;9.920;2022-12-18T11:46:46;102156.03;;;1.26;100.00
13968;BME280;39536;52.198;9.920;2022-12-18T11:49:20;102146.16;;;1.38;100.00
13968;BME280;39536;52.198;9.920;2022-12-18T11:51:52;102133.06;;;1.57;100.00
13968;BME280;39536;52.198;9.920;2022-12-18T11:54:20;102130.69;;;1.65;100.00
13968;BME280;39536;52.198;9.920;2022-12-18T11:56:49;102123.06;;;1.67;100.00
13968;BME280;39536;52.198;9.920;2022-12-18T11:59:23;102120.50;;;1.68;100.00
13968;BME280;39536;52.198;9.920;2022-12-18T12:02:03;102111.72;;;1.60;100.00
13968;BME280;39536;52.198;9.920;2022-12-18T12:04:58;102106.41;;;1.54;100.00
13968;BME280;39536;52.198;9.920;2022-12-18T12:07:37;102092.97;;;1.63;100.00
13968;BME280;39536;52.198;9.920;2022-12-18T12:10:16;102096.09;;;1.52;100.00
13968;BME280;39536;52.198;9.920;2022-12-18T12:12:55;102084.91;;;1.50;100.00
13968;BME280;39536;52.198;9.920;2022-12-18T12:15:34;102077.66;;;1.37;100.00
13968;BME280;39536;52.198;9.920;2022-12-18T12:18:15;102068.53;;;1.18;100.00
13968;BME280;39536;52.198;9.920;2022-12-18T12:20:51;102080.47;;;1.16;100.00
13968;BME280;39536;52.198;9.920;2022-12-18T12:23:28;102079.31;;;1.06;100.00
13968;BME280;39536;52.198;9.920;2022-12-18T12:26:01;102072.19;;;0.98;100.00
13968;BME280;39536;52.198;9.920;2022-12-18T12:28:47;102076.34;;;0.94;100.00
13968;BME280;39536;52.198;9.920;2022-12-18T12:31:22;102064.63;;;0.75;100.00
13968;BME280;39536;52.198;9.920;2022-12-18T12:34:01;102073.47;;;0.58;100.00
13968;BME280;39536;52.198;9.920;2022-12-18T12:36:34;102055.97;;;0.46;100.00
13968;BME280;39536;52.198;9.920;2022-12-18T12:39:06;102064.28;;;0.39;100.00
13968;BME280;39536;52.198;9.920;2022-12-18T12:41:35;102059.19;;;0.15;100.00
13968;BME280;39536;52.198;9.920;2022-12-18T12:44:24;102047.53;;;-0.01;100.00
13968;BME280;39536;52.198;9.920;2022-12-18T12:46:54;102049.97;;;-0.06;100.00
13968;BME280;39536;52.198;9.920;2022-12-18T12:49:26;102043.88;;;-0.09;100.00
13968;BME280;39536;52.198;9.920;2022-12-18T12:51:59;102056.66;;;-0.09;100.00
13968;BME280;39536;52.198;9.920;2022-12-18T12:54:32;102049.78;;;-0.10;100.00